Time;durP1;ratioP1;P1;durP2;ratioP2;P2;SDS_P1;SDS_P2;PMS_P1;PMS_P2;Temp;Humidity;BMP_temperature;BMP_pressure;BME280_temperature;BME280_humidity;BME280_pressure;Samples;Min_cycle;Max_cycle;Signal;HPM_P1;HPM_P2
2023/09/03 00:00:31;;;;;;;840.05;498.17;;;;;;;;;;5086821;28;20492;-57
2023/09/03 00:02:57;;;;;;;828.72;475.40;;;;;;;;;;5088276;28;20098;-53
2023/09/03 00:05:23;;;;;;;827.85;471.70;;;;;;;;;;5087602;28;20378;-56
2023/09/03 00:07:51;;;;;;;837.83;495.73;;;;;;;;;;5088204;28;20055;-55
2023/09/03 00:10:16;;;;;;;830.55;484.67;;;;;;;;;;5087866;28;20424;-56
2023/09/03 00:12:42;;;;;;;831.65;480.42;;;;;;;;;;5088036;28;20020;-56
2023/09/03 00:15:07;;;;;;;830.70;475.98;;;;;;;;;;5087638;28;20438;-50
2023/09/03 00:17:32;;;;;;;833.38;478.98;;;;;;;;;;5087132;28;20027;-56
2023/09/03 00:19:57;;;;;;;836.40;494.02;;;;;;;;;;5087385;28;20377;-54
2023/09/03 00:22:23;;;;;;;830.97;471.48;;;;;;;;;;5084785;28;20081;-52
2023/09/03 00:24:49;;;;;;;826.50;482.50;;;;;;;;;;5087476;28;20098;-53
2023/09/03 00:27:14;;;;;;;823.78;459.20;;;;;;;;;;5086098;28;20118;-56
2023/09/03 00:29:40;;;;;;;839.15;497.40;;;;;;;;;;5087390;28;20184;-53
2023/09/03 00:32:05;;;;;;;831.33;475.67;;;;;;;;;;5087272;28;20455;-53
2023/09/03 00:34:32;;;;;;;819.28;450.15;;;;;;;;;;5092616;28;20039;-54
2023/09/03 00:36:57;;;;;;;827.63;462.23;;;;;;;;;;5066917;28;20445;-56
2023/09/03 00:39:23;;;;;;;826.45;472.27;;;;;;;;;;5066892;28;20024;-52
2023/09/03 00:41:48;;;;;;;821.22;467.17;;;;;;;;;;5065710;28;20406;-53
2023/09/03 00:44:14;;;;;;;829.63;472.50;;;;;;;;;;5066500;28;20020;-53
2023/09/03 00:46:41;;;;;;;822.40;451.17;;;;;;;;;;5066767;28;20474;-55
2023/09/03 00:49:06;;;;;;;825.42;463.80;;;;;;;;;;5066787;28;20029;-55
2023/09/03 00:51:32;;;;;;;812.47;422.63;;;;;;;;;;5067075;28;20020;-54
2023/09/03 00:53:57;;;;;;;818.85;442.35;;;;;;;;;;5047314;28;20033;-53
2023/09/03 00:56:23;;;;;;;823.15;449.20;;;;;;;;;;5066723;28;20083;-54
2023/09/03 00:58:48;;;;;;;774.33;314.83;;;;;;;;;;5066388;28;20032;-51
2023/09/03 01:01:14;;;;;;;837.05;502.20;;;;;;;;;;5066453;28;20066;-54
2023/09/03 01:03:42;;;;;;;837.90;502.73;;;;;;;;;;5065530;28;20029;-56
2023/09/03 01:06:08;;;;;;;832.90;479.33;;;;;;;;;;5066861;28;20024;-54
2023/09/03 01:08:33;;;;;;;831.70;488.40;;;;;;;;;;5066686;28;20490;-53
2023/09/03 01:11:06;;;;;;;824.65;457.27;;;;;;;;;;5066272;28;20111;-53
2023/09/03 01:13:31;;;;;;;822.92;448.65;;;;;;;;;;5066193;28;20017;-53
2023/09/03 01:15:58;;;;;;;827.00;465.35;;;;;;;;;;5066172;28;20078;-56
2023/09/03 01:18:26;;;;;;;792.15;377.35;;;;;;;;;;5082312;28;20435;-54
2023/09/03 01:21:10;;;;;;;810.88;426.13;;;;;;;;;;5086087;28;20493;-53
2023/09/03 01:23:39;;;;;;;824.05;456.58;;;;;;;;;;5050100;28;20039;-50
2023/09/03 01:26:24;;;;;;;828.47;471.40;;;;;;;;;;5085241;28;20031;-54
2023/09/03 01:28:50;;;;;;;822.75;458.40;;;;;;;;;;5085977;28;20265;-54
2023/09/03 01:31:16;;;;;;;828.40;481.90;;;;;;;;;;5086024;28;20020;-54
2023/09/03 01:33:43;;;;;;;825.15;466.13;;;;;;;;;;5086252;28;20023;-55
2023/09/03 01:36:09;;;;;;;828.90;487.52;;;;;;;;;;5086007;28;20027;-53
2023/09/03 01:38:35;;;;;;;816.03;446.60;;;;;;;;;;5085700;28;20035;-55
2023/09/03 01:41:01;;;;;;;835.45;506.23;;;;;;;;;;5085563;28;20490;-55
2023/09/03 01:43:26;;;;;;;836.42;500.55;;;;;;;;;;5085252;28;20016;-53
2023/09/03 01:45:54;;;;;;;842.85;525.17;;;;;;;;;;5085855;28;20036;-56
2023/09/03 01:48:27;;;;;;;839.78;517.95;;;;;;;;;;5085914;28;20503;-56
2023/09/03 01:51:03;;;;;;;838.97;536.58;;;;;;;;;;5085886;28;20032;-52
2023/09/03 01:53:32;;;;;;;836.92;512.00;;;;;;;;;;5085470;28;20048;-54
2023/09/03 01:55:59;;;;;;;828.30;481.33;;;;;;;;;;5086107;28;20362;-54
2023/09/03 01:58:27;;;;;;;836.92;513.85;;;;;;;;;;5084460;28;20269;-52
2023/09/03 02:00:54;;;;;;;824.85;465.92;;;;;;;;;;5083385;28;20665;-53
2023/09/03 02:03:21;;;;;;;828.17;484.90;;;;;;;;;;5085279;28;20517;-53
2023/09/03 02:05:46;;;;;;;814.63;445.25;;;;;;;;;;5086973;28;20020;-55
2023/09/03 02:08:12;;;;;;;839.95;519.30;;;;;;;;;;5085443;28;20030;-51
2023/09/03 02:10:37;;;;;;;825.72;469.85;;;;;;;;;;5082757;28;20032;-51
2023/09/03 02:13:03;;;;;;;830.17;479.17;;;;;;;;;;5083923;28;20032;-54
2023/09/03 02:15:28;;;;;;;821.67;435.75;;;;;;;;;;5084564;28;20016;-54
2023/09/03 02:17:55;;;;;;;813.70;426.25;;;;;;;;;;5084443;28;20504;-53
2023/09/03 02:20:20;;;;;;;810.78;424.10;;;;;;;;;;5084943;28;20085;-56
2023/09/03 02:22:46;;;;;;;814.35;429.70;;;;;;;;;;5085019;28;20028;-54
2023/09/03 02:25:11;;;;;;;823.38;469.77;;;;;;;;;;5084947;28;20259;-51
2023/09/03 02:27:36;;;;;;;804.47;416.27;;;;;;;;;;5083190;28;20039;-54
2023/09/03 02:30:02;;;;;;;816.00;433.10;;;;;;;;;;5084861;28;20465;-56
2023/09/03 02:32:27;;;;;;;808.63;416.60;;;;;;;;;;5084326;28;20024;-54
2023/09/03 02:34:52;;;;;;;796.55;388.50;;;;;;;;;;5064920;28;20449;-56
2023/09/03 02:37:18;;;;;;;810.08;417.73;;;;;;;;;;5064461;28;20063;-56
2023/09/03 02:39:43;;;;;;;797.50;392.30;;;;;;;;;;5064708;28;20542;-54
2023/09/03 02:42:08;;;;;;;798.03;401.00;;;;;;;;;;5065022;28;20387;-56
2023/09/03 02:44:34;;;;;;;809.15;421.35;;;;;;;;;;5064359;28;20020;-52
2023/09/03 02:46:59;;;;;;;804.45;416.80;;;;;;;;;;5064842;28;20024;-50
2023/09/03 02:49:24;;;;;;;820.15;454.48;;;;;;;;;;5064511;28;20135;-55
2023/09/03 02:51:50;;;;;;;816.75;436.88;;;;;;;;;;5066091;28;20060;-55
2023/09/03 02:54:15;;;;;;;797.75;402.23;;;;;;;;;;5064755;28;20075;-54
2023/09/03 02:56:41;;;;;;;792.67;390.08;;;;;;;;;;5064522;28;20048;-53
2023/09/03 02:59:06;;;;;;;767.20;309.65;;;;;;;;;;5063888;28;20021;-53
2023/09/03 03:01:33;;;;;;;822.47;473.35;;;;;;;;;;5064229;28;20035;-55
2023/09/03 03:03:59;;;;;;;817.95;443.40;;;;;;;;;;5063960;28;20028;-56
2023/09/03 03:06:24;;;;;;;820.17;446.73;;;;;;;;;;5064086;28;20093;-53
2023/09/03 03:08:50;;;;;;;826.00;478.40;;;;;;;;;;5083471;28;20063;-56
2023/09/03 03:11:16;;;;;;;793.50;378.67;;;;;;;;;;5084030;28;20374;-52
2023/09/03 03:13:42;;;;;;;797.33;390.23;;;;;;;;;;5083893;28;20396;-55
2023/09/03 03:16:08;;;;;;;813.20;424.92;;;;;;;;;;5083909;28;20024;-52
2023/09/03 03:18:34;;;;;;;813.28;429.48;;;;;;;;;;5083632;28;20149;-52
2023/09/03 03:21:19;;;;;;;809.55;425.23;;;;;;;;;;5083771;28;20099;-56
2023/09/03 03:23:48;;;;;;;806.00;416.33;;;;;;;;;;5080172;28;20182;-54
2023/09/03 03:26:13;;;;;;;809.95;424.30;;;;;;;;;;5080886;28;20051;-55
2023/09/03 03:28:39;;;;;;;807.60;420.05;;;;;;;;;;5047476;28;20030;-51
2023/09/03 03:31:08;;;;;;;820.85;455.77;;;;;;;;;;5081364;28;20861;-53
2023/09/03 03:33:33;;;;;;;813.10;445.73;;;;;;;;;;5081030;28;20119;-52
2023/09/03 03:35:59;;;;;;;813.85;439.67;;;;;;;;;;5081078;28;20173;-54
2023/09/03 03:38:24;;;;;;;810.53;437.40;;;;;;;;;;5082102;28;20036;-51
2023/09/03 03:40:49;;;;;;;805.85;422.60;;;;;;;;;;5078076;28;20024;-54
2023/09/03 03:43:14;;;;;;;793.78;387.10;;;;;;;;;;5060753;28;20036;-56
2023/09/03 03:45:40;;;;;;;812.10;442.23;;;;;;;;;;5060618;28;20074;-53
2023/09/03 03:48:05;;;;;;;823.20;484.83;;;;;;;;;;5060421;28;20035;-50
2023/09/03 03:50:30;;;;;;;822.45;493.80;;;;;;;;;;5060543;28;20036;-55
2023/09/03 03:52:56;;;;;;;818.75;467.20;;;;;;;;;;5060342;28;20060;-53
2023/09/03 03:55:21;;;;;;;808.85;416.05;;;;;;;;;;5062721;28;20032;-51
2023/09/03 03:57:46;;;;;;;813.90;440.98;;;;;;;;;;5063717;28;20050;-56
2023/09/03 04:00:13;;;;;;;806.33;422.00;;;;;;;;;;5063181;28;20382;-53
2023/09/03 04:02:38;;;;;;;806.22;415.90;;;;;;;;;;5063118;28;20021;-55
2023/09/03 04:05:04;;;;;;;825.50;486.67;;;;;;;;;;5063574;28;20098;-55
2023/09/03 04:07:29;;;;;;;826.08;507.48;;;;;;;;;;5060599;28;20031;-53
2023/09/03 04:09:54;;;;;;;829.15;515.88;;;;;;;;;;5063452;28;20455;-55
2023/09/03 04:12:19;;;;;;;826.00;487.92;;;;;;;;;;5063416;28;20045;-55
2023/09/03 04:14:45;;;;;;;816.75;451.77;;;;;;;;;;5065275;28;20473;-52
2023/09/03 04:17:10;;;;;;;810.17;422.20;;;;;;;;;;5083336;28;20462;-52
2023/09/03 04:19:35;;;;;;;823.50;475.20;;;;;;;;;;5082960;28;20078;-57
2023/09/03 04:22:00;;;;;;;814.78;432.10;;;;;;;;;;5083694;28;20024;-54
2023/09/03 04:24:26;;;;;;;815.97;443.27;;;;;;;;;;5080698;28;20032;-51
2023/09/03 04:26:51;;;;;;;831.08;501.60;;;;;;;;;;5083627;28;20431;-52
2023/09/03 04:29:16;;;;;;;819.20;457.13;;;;;;;;;;5083144;28;20032;-55
2023/09/03 04:31:42;;;;;;;816.92;446.33;;;;;;;;;;5080801;28;20023;-56
2023/09/03 04:34:08;;;;;;;822.65;470.17;;;;;;;;;;5063035;28;20565;-52
2023/09/03 04:36:34;;;;;;;831.72;497.40;;;;;;;;;;5063044;28;20104;-55
2023/09/03 04:38:59;;;;;;;814.88;426.08;;;;;;;;;;5063976;28;20111;-52
2023/09/03 04:41:24;;;;;;;812.47;437.88;;;;;;;;;;5066909;28;20028;-55
2023/09/03 04:43:50;;;;;;;843.33;535.55;;;;;;;;;;5066724;28;20466;-56
2023/09/03 04:46:15;;;;;;;815.45;422.77;;;;;;;;;;5066577;28;20096;-52
2023/09/03 04:48:40;;;;;;;810.67;420.60;;;;;;;;;;5066960;28;20035;-54
2023/09/03 04:51:07;;;;;;;823.72;456.65;;;;;;;;;;5066344;28;20482;-57
2023/09/03 04:53:32;;;;;;;830.30;485.42;;;;;;;;;;5065968;28;20048;-55
2023/09/03 04:55:58;;;;;;;816.80;434.80;;;;;;;;;;5066559;28;20442;-55
2023/09/03 04:58:23;;;;;;;828.80;481.73;;;;;;;;;;5066374;28;20676;-52
2023/09/03 05:00:48;;;;;;;828.33;476.20;;;;;;;;;;5066261;28;20099;-55
2023/09/03 05:03:13;;;;;;;831.22;485.30;;;;;;;;;;5066169;28;20428;-55
2023/09/03 05:05:40;;;;;;;827.22;472.20;;;;;;;;;;5066796;28;20025;-54
2023/09/03 05:08:05;;;;;;;828.00;474.75;;;;;;;;;;5066403;28;20028;-54
2023/09/03 05:10:31;;;;;;;818.08;456.90;;;;;;;;;;5066226;28;20154;-53
2023/09/03 05:12:56;;;;;;;830.95;472.88;;;;;;;;;;5066143;28;20525;-48
2023/09/03 05:15:21;;;;;;;831.92;480.27;;;;;;;;;;5066221;28;20115;-56
2023/09/03 05:17:46;;;;;;;832.20;480.83;;;;;;;;;;5076916;28;20477;-54
2023/09/03 05:20:12;;;;;;;839.63;509.33;;;;;;;;;;5086360;28;20023;-57
2023/09/03 05:22:37;;;;;;;842.25;509.75;;;;;;;;;;5085299;28;20528;-52
2023/09/03 05:25:03;;;;;;;844.78;514.35;;;;;;;;;;5086252;28;20023;-56
2023/09/03 05:27:29;;;;;;;827.75;490.05;;;;;;;;;;5084181;28;20028;-54
2023/09/03 05:29:54;;;;;;;840.40;510.85;;;;;;;;;;5085965;28;20485;-54
2023/09/03 05:32:19;;;;;;;840.45;493.50;;;;;;;;;;5085957;28;20027;-55
2023/09/03 05:34:45;;;;;;;831.20;485.92;;;;;;;;;;5085838;28;20020;-52
2023/09/03 05:37:10;;;;;;;830.80;488.23;;;;;;;;;;5085498;28;20492;-54
2023/09/03 05:39:35;;;;;;;836.53;500.83;;;;;;;;;;5084413;28;20027;-53
2023/09/03 05:42:00;;;;;;;840.95;500.25;;;;;;;;;;5065475;28;20024;-57
2023/09/03 05:44:26;;;;;;;835.67;494.30;;;;;;;;;;5065369;28;20028;-52
2023/09/03 05:46:51;;;;;;;833.70;492.88;;;;;;;;;;5065338;28;20644;-53
2023/09/03 05:49:16;;;;;;;841.70;517.78;;;;;;;;;;5065221;28;20036;-55
2023/09/03 05:51:41;;;;;;;840.15;506.25;;;;;;;;;;5065205;28;20035;-56
2023/09/03 05:54:07;;;;;;;841.10;518.75;;;;;;;;;;5064040;28;20020;-52
2023/09/03 05:56:34;;;;;;;845.85;529.25;;;;;;;;;;5066076;28;20330;-50
2023/09/03 05:59:05;;;;;;;844.22;526.42;;;;;;;;;;5065073;28;20059;-55
2023/09/03 06:01:30;;;;;;;848.35;533.75;;;;;;;;;;5064991;28;20496;-52
2023/09/03 06:03:55;;;;;;;848.55;520.15;;;;;;;;;;5065574;28;20024;-56
2023/09/03 06:06:21;;;;;;;847.83;529.90;;;;;;;;;;5064991;28;20386;-54
2023/09/03 06:08:46;;;;;;;855.55;546.03;;;;;;;;;;5062575;28;20036;-53
2023/09/03 06:11:11;;;;;;;854.03;539.58;;;;;;;;;;5065239;28;20446;-56
2023/09/03 06:13:37;;;;;;;854.63;542.88;;;;;;;;;;5065595;28;20108;-52
2023/09/03 06:16:02;;;;;;;855.10;535.25;;;;;;;;;;5065035;28;20481;-51
2023/09/03 06:18:27;;;;;;;853.05;535.75;;;;;;;;;;5081875;28;20059;-55
2023/09/03 06:20:53;;;;;;;854.60;532.97;;;;;;;;;;5085069;28;20106;-52
2023/09/03 06:23:19;;;;;;;856.00;549.25;;;;;;;;;;5084990;28;20422;-53
2023/09/03 06:25:45;;;;;;;854.03;547.83;;;;;;;;;;5085009;28;20024;-52
2023/09/03 06:28:10;;;;;;;861.38;563.78;;;;;;;;;;5099358;28;20032;-52
2023/09/03 06:30:35;;;;;;;859.45;551.78;;;;;;;;;;5083882;28;20389;-53
2023/09/03 06:33:01;;;;;;;860.33;553.38;;;;;;;;;;5084671;28;20484;-52
2023/09/03 06:35:26;;;;;;;863.72;566.95;;;;;;;;;;5085061;28;20390;-51
2023/09/03 06:37:51;;;;;;;858.72;538.70;;;;;;;;;;5084641;28;20027;-55
2023/09/03 06:40:17;;;;;;;849.72;544.60;;;;;;;;;;5084588;28;20060;-52
2023/09/03 06:42:42;;;;;;;868.80;565.58;;;;;;;;;;5084470;28;20016;-53
2023/09/03 06:45:08;;;;;;;864.83;563.28;;;;;;;;;;5084474;28;20028;-54
2023/09/03 06:47:33;;;;;;;873.70;594.95;;;;;;;;;;5083191;28;20020;-53
2023/09/03 06:49:58;;;;;;;878.80;607.05;;;;;;;;;;5084239;28;20030;-56
2023/09/03 06:52:24;;;;;;;883.60;616.80;;;;;;;;;;5084102;28;20108;-57
2023/09/03 06:54:49;;;;;;;899.42;650.85;;;;;;;;;;5084478;28;20311;-52
2023/09/03 06:57:14;;;;;;;907.53;671.85;;;;;;;;;;5084302;28;20302;-53
2023/09/03 06:59:40;;;;;;;912.15;678.03;;;;;;;;;;5084258;28;20477;-56
2023/09/03 07:02:06;;;;;;;910.83;676.38;;;;;;;;;;5083831;28;20028;-55
2023/09/03 07:04:31;;;;;;;916.80;687.90;;;;;;;;;;5083271;28;20055;-51
2023/09/03 07:06:56;;;;;;;907.33;679.55;;;;;;;;;;5084467;28;20031;-56
2023/09/03 07:09:22;;;;;;;911.72;684.17;;;;;;;;;;5084081;28;20024;-55
2023/09/03 07:11:47;;;;;;;914.70;688.88;;;;;;;;;;5084000;28;20417;-54
2023/09/03 07:14:12;;;;;;;913.37;686.33;;;;;;;;;;5084069;28;20032;-57
2023/09/03 07:16:38;;;;;;;918.70;698.22;;;;;;;;;;5083616;28;20282;-57
2023/09/03 07:19:03;;;;;;;924.88;704.00;;;;;;;;;;5083621;28;20020;-53
2023/09/03 07:21:28;;;;;;;925.60;709.38;;;;;;;;;;5081796;28;20086;-54
2023/09/03 07:23:53;;;;;;;913.47;699.80;;;;;;;;;;5083426;28;20030;-57
2023/09/03 07:26:19;;;;;;;911.35;694.20;;;;;;;;;;5083765;28;20667;-53
2023/09/03 07:28:44;;;;;;;910.92;691.05;;;;;;;;;;5083696;28;20085;-51
2023/09/03 07:31:09;;;;;;;914.83;698.67;;;;;;;;;;5083966;28;20012;-55
2023/09/03 07:33:35;;;;;;;906.65;674.50;;;;;;;;;;5083907;28;20088;-57
2023/09/03 07:36:00;;;;;;;905.65;669.55;;;;;;;;;;5083689;28;20385;-56
2023/09/03 07:38:27;;;;;;;904.42;658.67;;;;;;;;;;5083763;28;20035;-54
2023/09/03 07:40:52;;;;;;;905.88;669.65;;;;;;;;;;5083197;28;20055;-53
2023/09/03 07:43:18;;;;;;;902.60;668.20;;;;;;;;;;5083419;28;20056;-56
2023/09/03 07:45:44;;;;;;;900.40;658.63;;;;;;;;;;5064212;28;20082;-51
2023/09/03 07:48:09;;;;;;;896.67;651.17;;;;;;;;;;5083630;28;20031;-54
2023/09/03 07:50:37;;;;;;;892.43;647.87;;;;;;;;;;5083574;28;20024;-57
2023/09/03 07:53:03;;;;;;;892.42;636.42;;;;;;;;;;5083084;28;20288;-54
2023/09/03 07:55:28;;;;;;;894.42;651.63;;;;;;;;;;5082958;28;20020;-56
2023/09/03 07:57:54;;;;;;;897.92;654.22;;;;;;;;;;5082817;28;20026;-56
2023/09/03 08:00:19;;;;;;;897.60;644.70;;;;;;;;;;5064113;28;20035;-53
2023/09/03 08:02:44;;;;;;;893.33;637.40;;;;;;;;;;5083778;28;20490;-57
2023/09/03 08:05:11;;;;;;;893.40;633.77;;;;;;;;;;5081546;28;20027;-51
2023/09/03 08:07:37;;;;;;;895.13;651.50;;;;;;;;;;5075168;28;20538;-54
2023/09/03 08:10:02;;;;;;;899.40;651.55;;;;;;;;;;5083258;28;20280;-51
2023/09/03 08:12:27;;;;;;;888.75;636.92;;;;;;;;;;5065230;28;20032;-54
2023/09/03 08:14:53;;;;;;;887.80;641.10;;;;;;;;;;5067030;28;20025;-57
2023/09/03 08:17:18;;;;;;;886.87;631.77;;;;;;;;;;5074751;28;20255;-54
2023/09/03 08:19:43;;;;;;;895.20;649.88;;;;;;;;;;5076828;28;21016;-53
2023/09/03 08:22:08;;;;;;;887.45;645.95;;;;;;;;;;5080032;28;20104;-56
2023/09/03 08:24:34;;;;;;;894.25;652.65;;;;;;;;;;5067002;28;20110;-57
2023/09/03 08:26:59;;;;;;;889.80;644.20;;;;;;;;;;5083895;28;20024;-54
2023/09/03 08:29:25;;;;;;;890.13;641.92;;;;;;;;;;5086724;28;20147;-54
2023/09/03 08:31:50;;;;;;;881.97;634.85;;;;;;;;;;5077553;28;20023;-50
2023/09/03 08:34:15;;;;;;;900.58;664.63;;;;;;;;;;5076668;28;20133;-55
2023/09/03 08:36:40;;;;;;;908.97;676.97;;;;;;;;;;5087087;28;20020;-56
2023/09/03 08:39:06;;;;;;;908.10;688.43;;;;;;;;;;5086785;28;20272;-54
2023/09/03 08:41:32;;;;;;;922.47;700.55;;;;;;;;;;5086883;28;20796;-53
2023/09/03 08:44:00;;;;;;;923.17;706.15;;;;;;;;;;5086474;28;20124;-56
2023/09/03 08:46:29;;;;;;;925.70;709.88;;;;;;;;;;5086167;28;20020;-55
2023/09/03 08:48:54;;;;;;;918.90;703.92;;;;;;;;;;5086556;28;20031;-53
2023/09/03 08:51:21;;;;;;;927.20;714.38;;;;;;;;;;5086469;28;20032;-57
2023/09/03 08:53:48;;;;;;;922.90;716.90;;;;;;;;;;5086290;28;20399;-54
2023/09/03 08:56:13;;;;;;;927.70;717.90;;;;;;;;;;5086960;28;20400;-55
2023/09/03 08:58:38;;;;;;;913.00;711.42;;;;;;;;;;5086384;28;20319;-53
2023/09/03 09:01:05;;;;;;;915.80;711.90;;;;;;;;;;5086296;28;20027;-56
2023/09/03 09:03:32;;;;;;;912.15;708.13;;;;;;;;;;5085497;28;20048;-54
2023/09/03 09:05:58;;;;;;;917.30;713.67;;;;;;;;;;5086508;28;20024;-58
2023/09/03 09:08:23;;;;;;;928.05;727.63;;;;;;;;;;5086459;28;20020;-53
2023/09/03 09:10:50;;;;;;;929.45;728.45;;;;;;;;;;5086485;28;20056;-56
2023/09/03 09:13:20;;;;;;;920.17;725.60;;;;;;;;;;5086361;28;20016;-57
2023/09/03 09:15:45;;;;;;;921.40;726.42;;;;;;;;;;5086098;28;20012;-55
2023/09/03 09:18:10;;;;;;;925.92;725.15;;;;;;;;;;5086351;28;20032;-55
2023/09/03 09:20:37;;;;;;;917.97;724.85;;;;;;;;;;5085226;28;20449;-58
2023/09/03 09:23:02;;;;;;;919.70;728.28;;;;;;;;;;5085998;28;20043;-52
2023/09/03 09:25:27;;;;;;;927.22;730.95;;;;;;;;;;5085118;28;20024;-54
2023/09/03 09:27:53;;;;;;;932.07;742.83;;;;;;;;;;5085681;28;20107;-57
2023/09/03 09:30:20;;;;;;;936.00;742.40;;;;;;;;;;5085919;28;20249;-56
2023/09/03 09:32:45;;;;;;;934.85;750.20;;;;;;;;;;5086375;28;20111;-55
2023/09/03 09:35:21;;;;;;;933.63;761.53;;;;;;;;;;5086165;28;20191;-57
2023/09/03 09:37:46;;;;;;;936.25;761.33;;;;;;;;;;5084876;28;20474;-56
2023/09/03 09:40:14;;;;;;;929.30;761.60;;;;;;;;;;5085542;28;20023;-57
2023/09/03 09:42:52;;;;;;;925.75;736.45;;;;;;;;;;5085527;28;20257;-55
2023/09/03 09:45:17;;;;;;;934.88;765.67;;;;;;;;;;5085441;28;20012;-54
2023/09/03 09:47:43;;;;;;;939.17;787.20;;;;;;;;;;5085916;28;20107;-55
2023/09/03 09:50:08;;;;;;;939.33;782.53;;;;;;;;;;5085910;28;20240;-52
2023/09/03 09:52:35;;;;;;;942.00;785.25;;;;;;;;;;5085627;28;20277;-55
2023/09/03 09:55:00;;;;;;;898.88;750.00;;;;;;;;;;5065162;28;20481;-56
2023/09/03 09:57:27;;;;;;;933.60;763.03;;;;;;;;;;5085491;28;20027;-57
2023/09/03 09:59:53;;;;;;;936.15;763.03;;;;;;;;;;5084910;28;20064;-56
2023/09/03 10:02:19;;;;;;;945.78;784.70;;;;;;;;;;5085819;28;20020;-57
2023/09/03 10:04:46;;;;;;;948.13;791.35;;;;;;;;;;5085271;28;20028;-57
2023/09/03 10:07:11;;;;;;;953.05;803.13;;;;;;;;;;5085695;28;20078;-54
2023/09/03 10:09:37;;;;;;;951.10;798.35;;;;;;;;;;5084888;28;20430;-57
2023/09/03 10:12:03;;;;;;;951.92;797.78;;;;;;;;;;5084446;28;20043;-58
2023/09/03 10:14:29;;;;;;;949.85;803.08;;;;;;;;;;5084931;28;20419;-57
2023/09/03 10:16:56;;;;;;;947.50;806.17;;;;;;;;;;5084895;28;20372;-55
2023/09/03 10:19:23;;;;;;;946.00;798.47;;;;;;;;;;5083899;28;20154;-54
2023/09/03 10:21:49;;;;;;;941.97;793.97;;;;;;;;;;5085021;28;20027;-55
2023/09/03 10:24:15;;;;;;;943.47;789.10;;;;;;;;;;5084952;28;20024;-54
2023/09/03 10:26:43;;;;;;;942.25;786.88;;;;;;;;;;5083708;28;20024;-58
2023/09/03 10:29:10;;;;;;;951.65;781.97;;;;;;;;;;5084515;28;20024;-57
2023/09/03 10:31:37;;;;;;;950.03;778.40;;;;;;;;;;5084720;28;20484;-57
2023/09/03 10:34:07;;;;;;;952.88;785.00;;;;;;;;;;5085208;28;20482;-56
2023/09/03 10:36:33;;;;;;;952.78;793.97;;;;;;;;;;5083887;28;20036;-56
2023/09/03 10:39:07;;;;;;;960.22;796.65;;;;;;;;;;5085055;28;20040;-57
2023/09/03 10:41:32;;;;;;;956.60;798.50;;;;;;;;;;5084460;28;20032;-57
2023/09/03 10:44:13;;;;;;;957.47;822.30;;;;;;;;;;5084466;28;20034;-56
2023/09/03 10:46:58;;;;;;;944.17;795.97;;;;;;;;;;5083821;28;20020;-53
2023/09/03 10:49:23;;;;;;;963.33;815.45;;;;;;;;;;5084400;28;20436;-55
2023/09/03 10:51:49;;;;;;;972.90;821.05;;;;;;;;;;5084402;28;20019;-57
2023/09/03 10:54:14;;;;;;;971.17;822.42;;;;;;;;;;5084879;28;20021;-55
2023/09/03 10:56:58;;;;;;;973.38;818.35;;;;;;;;;;5084448;28;20467;-56
2023/09/03 10:59:24;;;;;;;963.63;825.80;;;;;;;;;;5084165;28;20101;-57
2023/09/03 11:01:49;;;;;;;966.90;803.15;;;;;;;;;;5084465;28;20053;-54
2023/09/03 11:04:14;;;;;;;966.90;807.30;;;;;;;;;;5069702;28;20024;-54
2023/09/03 11:06:40;;;;;;;956.90;821.87;;;;;;;;;;5064108;28;20377;-57
2023/09/03 11:09:12;;;;;;;955.65;814.28;;;;;;;;;;5063918;28;20248;-55
2023/09/03 11:11:38;;;;;;;956.72;828.72;;;;;;;;;;5063981;28;20021;-57
2023/09/03 11:14:06;;;;;;;952.65;806.25;;;;;;;;;;5064164;28;20013;-56
2023/09/03 11:16:41;;;;;;;950.50;801.10;;;;;;;;;;5063203;28;20482;-55
2023/09/03 11:19:07;;;;;;;959.47;783.50;;;;;;;;;;5064228;28;20083;-58
2023/09/03 11:21:33;;;;;;;960.42;779.88;;;;;;;;;;5064929;28;20453;-57
2023/09/03 11:24:00;;;;;;;958.25;776.33;;;;;;;;;;5065040;28;20109;-57
2023/09/03 11:26:25;;;;;;;957.63;780.05;;;;;;;;;;5064513;28;20024;-53
2023/09/03 11:28:51;;;;;;;955.10;791.25;;;;;;;;;;5078237;28;20035;-57
2023/09/03 11:31:17;;;;;;;953.17;778.63;;;;;;;;;;5084131;28;20429;-57
2023/09/03 11:33:42;;;;;;;952.15;789.65;;;;;;;;;;5083726;28;20020;-54
2023/09/03 11:36:08;;;;;;;946.50;784.97;;;;;;;;;;5083961;28;20026;-58
2023/09/03 11:38:34;;;;;;;953.33;785.28;;;;;;;;;;5080331;28;20792;-53
2023/09/03 11:41:00;;;;;;;950.95;780.60;;;;;;;;;;5062289;28;20029;-56
2023/09/03 11:43:28;;;;;;;941.20;781.13;;;;;;;;;;5063430;28;20025;-54
2023/09/03 11:45:54;;;;;;;942.45;774.38;;;;;;;;;;5063625;28;20040;-56
2023/09/03 11:48:24;;;;;;;940.83;777.15;;;;;;;;;;5063004;28;20032;-57
2023/09/03 11:50:50;;;;;;;944.75;769.22;;;;;;;;;;5063412;28;20020;-54
2023/09/03 11:53:16;;;;;;;945.03;755.83;;;;;;;;;;5063665;28;20135;-57
2023/09/03 11:55:44;;;;;;;942.85;769.75;;;;;;;;;;5082015;28;20106;-54
2023/09/03 11:58:10;;;;;;;943.00;771.40;;;;;;;;;;5098375;28;20039;-56
2023/09/03 12:00:37;;;;;;;944.92;765.30;;;;;;;;;;5084205;28;20024;-57
2023/09/03 12:03:03;;;;;;;942.55;762.42;;;;;;;;;;5064439;28;20039;-54
2023/09/03 12:05:29;;;;;;;938.17;759.65;;;;;;;;;;5084728;28;20028;-56
2023/09/03 12:08:02;;;;;;;940.20;748.35;;;;;;;;;;5083508;28;20024;-55
2023/09/03 12:10:28;;;;;;;935.38;744.83;;;;;;;;;;5083535;28;20100;-55
2023/09/03 12:12:54;;;;;;;942.20;743.88;;;;;;;;;;5083142;28;20050;-55
2023/09/03 12:15:20;;;;;;;941.25;739.72;;;;;;;;;;5064009;28;20036;-51
2023/09/03 12:17:46;;;;;;;937.95;746.75;;;;;;;;;;5082050;28;20016;-53
2023/09/03 12:20:30;;;;;;;936.05;747.70;;;;;;;;;;5083643;28;20038;-52
2023/09/03 12:22:55;;;;;;;937.47;751.47;;;;;;;;;;5083235;28;20020;-54
2023/09/03 12:25:21;;;;;;;924.47;737.60;;;;;;;;;;5083134;28;20020;-56
2023/09/03 12:27:47;;;;;;;933.75;745.00;;;;;;;;;;5082407;28;20458;-55
2023/09/03 12:30:13;;;;;;;934.28;741.70;;;;;;;;;;5083280;28;20028;-56
2023/09/03 12:32:39;;;;;;;936.10;742.50;;;;;;;;;;5063771;28;20040;-55
2023/09/03 12:35:18;;;;;;;939.95;745.25;;;;;;;;;;5047514;28;20421;-53
2023/09/03 12:37:44;;;;;;;938.15;745.22;;;;;;;;;;5064507;28;20039;-57
2023/09/03 12:40:10;;;;;;;938.95;746.30;;;;;;;;;;5083664;28;20036;-55
2023/09/03 12:42:35;;;;;;;942.60;757.30;;;;;;;;;;5083353;28;20066;-53
2023/09/03 12:45:01;;;;;;;940.20;756.23;;;;;;;;;;5082646;28;20044;-57
2023/09/03 12:47:26;;;;;;;943.35;764.58;;;;;;;;;;5084145;28;20267;-55
2023/09/03 12:49:52;;;;;;;946.33;759.55;;;;;;;;;;5083283;28;20377;-57
2023/09/03 12:52:18;;;;;;;945.40;766.90;;;;;;;;;;5083127;28;20719;-56
2023/09/03 12:54:43;;;;;;;951.97;775.28;;;;;;;;;;5063754;28;20056;-57
2023/09/03 12:57:10;;;;;;;951.78;770.70;;;;;;;;;;5082971;28;20032;-56
2023/09/03 12:59:36;;;;;;;941.45;773.10;;;;;;;;;;5082174;28;20032;-56
2023/09/03 13:02:03;;;;;;;941.42;770.10;;;;;;;;;;5085564;28;20377;-56
2023/09/03 13:04:29;;;;;;;938.85;773.35;;;;;;;;;;5086885;28;20077;-55
2023/09/03 13:06:55;;;;;;;942.67;771.83;;;;;;;;;;5067046;28;20036;-56
2023/09/03 13:09:20;;;;;;;941.17;777.58;;;;;;;;;;5100811;28;20374;-55
2023/09/03 13:11:47;;;;;;;942.90;768.25;;;;;;;;;;5086604;28;20381;-57
2023/09/03 13:14:12;;;;;;;938.13;770.15;;;;;;;;;;5086572;28;20468;-54
2023/09/03 13:16:38;;;;;;;946.33;776.95;;;;;;;;;;5086228;28;20055;-56
2023/09/03 13:19:04;;;;;;;940.83;783.28;;;;;;;;;;5085228;28;20031;-58
2023/09/03 13:21:35;;;;;;;946.33;783.40;;;;;;;;;;5066493;28;20036;-54
2023/09/03 13:24:01;;;;;;;943.65;787.85;;;;;;;;;;5086242;28;20051;-54
2023/09/03 13:26:26;;;;;;;936.90;779.17;;;;;;;;;;5086400;28;20507;-52
2023/09/03 13:28:52;;;;;;;939.13;776.95;;;;;;;;;;5086153;28;20050;-56
2023/09/03 13:31:21;;;;;;;938.83;775.92;;;;;;;;;;5086179;28;20016;-56
2023/09/03 13:33:47;;;;;;;945.65;778.28;;;;;;;;;;5086260;28;20405;-56
2023/09/03 13:36:15;;;;;;;944.63;774.65;;;;;;;;;;5083574;28;20384;-58
2023/09/03 13:38:41;;;;;;;934.80;775.92;;;;;;;;;;5085746;28;20030;-57
2023/09/03 13:41:07;;;;;;;944.80;767.15;;;;;;;;;;5085934;28;20107;-56
2023/09/03 13:43:33;;;;;;;944.30;774.03;;;;;;;;;;5082533;28;20036;-53
2023/09/03 13:46:00;;;;;;;939.35;776.58;;;;;;;;;;5085627;28;20024;-54